sensor_id;sensor_type;location;lat;lon;timestamp;P1;durP1;ratioP1;P2;durP2;ratioP2
27489;SDS011;14925;51.026;13.752;2023-06-14T00:01:43;5.70;;;2.67;;
27489;SDS011;14925;51.026;13.752;2023-06-14T00:04:10;3.60;;;2.55;;
27489;SDS011;14925;51.026;13.752;2023-06-14T00:06:36;7.70;;;2.53;;
27489;SDS011;14925;51.026;13.752;2023-06-14T00:09:03;4.90;;;3.00;;
27489;SDS011;14925;51.026;13.752;2023-06-14T00:11:29;6.50;;;2.72;;
27489;SDS011;14925;51.026;13.752;2023-06-14T00:13:55;9.48;;;2.85;;
27489;SDS011;14925;51.026;13.752;2023-06-14T00:16:21;3.92;;;2.60;;
27489;SDS011;14925;51.026;13.752;2023-06-14T00:18:47;4.90;;;2.60;;
27489;SDS011;14925;51.026;13.752;2023-06-14T00:21:13;5.28;;;2.80;;
27489;SDS011;14925;51.026;13.752;2023-06-14T00:23:39;5.15;;;2.55;;
27489;SDS011;14925;51.026;13.752;2023-06-14T00:26:04;5.30;;;3.10;;
27489;SDS011;14925;51.026;13.752;2023-06-14T00:28:30;5.45;;;3.00;;
27489;SDS011;14925;51.026;13.752;2023-06-14T00:30:55;8.50;;;2.65;;
27489;SDS011;14925;51.026;13.752;2023-06-14T00:33:21;5.93;;;2.78;;
27489;SDS011;14925;51.026;13.752;2023-06-14T00:35:46;6.25;;;2.70;;
27489;SDS011;14925;51.026;13.752;2023-06-14T00:38:12;5.32;;;2.80;;
27489;SDS011;14925;51.026;13.752;2023-06-14T00:40:37;4.25;;;2.70;;
27489;SDS011;14925;51.026;13.752;2023-06-14T00:43:03;5.70;;;2.80;;
27489;SDS011;14925;51.026;13.752;2023-06-14T00:45:28;7.40;;;2.75;;
27489;SDS011;14925;51.026;13.752;2023-06-14T00:47:53;6.43;;;2.63;;
27489;SDS011;14925;51.026;13.752;2023-06-14T00:50:20;7.15;;;2.65;;
27489;SDS011;14925;51.026;13.752;2023-06-14T00:52:46;6.43;;;2.67;;
27489;SDS011;14925;51.026;13.752;2023-06-14T00:55:12;3.42;;;2.70;;
27489;SDS011;14925;51.026;13.752;2023-06-14T00:57:37;4.47;;;2.70;;
27489;SDS011;14925;51.026;13.752;2023-06-14T01:00:05;6.35;;;3.10;;
27489;SDS011;14925;51.026;13.752;2023-06-14T01:02:34;5.38;;;2.83;;
27489;SDS011;14925;51.026;13.752;2023-06-14T01:05:03;7.70;;;3.00;;
27489;SDS011;14925;51.026;13.752;2023-06-14T01:15:38;5.88;;;3.00;;
27489;SDS011;14925;51.026;13.752;2023-06-14T01:18:04;6.18;;;3.20;;
27489;SDS011;14925;51.026;13.752;2023-06-14T01:20:32;5.35;;;3.05;;
27489;SDS011;14925;51.026;13.752;2023-06-14T01:23:01;3.58;;;3.17;;
27489;SDS011;14925;51.026;13.752;2023-06-14T01:25:27;4.60;;;3.00;;
27489;SDS011;14925;51.026;13.752;2023-06-14T01:27:53;5.50;;;3.10;;
27489;SDS011;14925;51.026;13.752;2023-06-14T01:30:23;4.50;;;2.97;;
27489;SDS011;14925;51.026;13.752;2023-06-14T01:32:50;8.23;;;3.22;;
27489;SDS011;14925;51.026;13.752;2023-06-14T01:35:16;3.75;;;3.03;;
27489;SDS011;14925;51.026;13.752;2023-06-14T01:37:42;6.50;;;3.55;;
27489;SDS011;14925;51.026;13.752;2023-06-14T01:40:09;6.15;;;3.38;;
27489;SDS011;14925;51.026;13.752;2023-06-14T01:42:37;4.10;;;3.30;;
27489;SDS011;14925;51.026;13.752;2023-06-14T01:45:04;9.27;;;3.40;;
27489;SDS011;14925;51.026;13.752;2023-06-14T01:47:30;4.95;;;3.20;;
27489;SDS011;14925;51.026;13.752;2023-06-14T01:49:57;6.05;;;3.45;;
27489;SDS011;14925;51.026;13.752;2023-06-14T01:52:22;7.35;;;3.50;;
27489;SDS011;14925;51.026;13.752;2023-06-14T01:54:49;5.90;;;3.10;;
27489;SDS011;14925;51.026;13.752;2023-06-14T01:57:17;4.15;;;3.15;;
27489;SDS011;14925;51.026;13.752;2023-06-14T01:59:42;5.75;;;3.90;;
27489;SDS011;14925;51.026;13.752;2023-06-14T02:02:13;5.07;;;3.50;;
27489;SDS011;14925;51.026;13.752;2023-06-14T02:04:38;7.80;;;3.70;;
27489;SDS011;14925;51.026;13.752;2023-06-14T02:07:07;5.55;;;3.42;;
27489;SDS011;14925;51.026;13.752;2023-06-14T02:09:35;8.88;;;3.45;;
27489;SDS011;14925;51.026;13.752;2023-06-14T02:12:01;9.85;;;3.70;;
27489;SDS011;14925;51.026;13.752;2023-06-14T02:14:26;6.63;;;3.75;;
27489;SDS011;14925;51.026;13.752;2023-06-14T02:16:52;8.35;;;3.75;;
27489;SDS011;14925;51.026;13.752;2023-06-14T02:19:18;5.55;;;3.88;;
27489;SDS011;14925;51.026;13.752;2023-06-14T02:21:44;7.22;;;3.90;;
27489;SDS011;14925;51.026;13.752;2023-06-14T02:24:10;5.95;;;3.83;;
27489;SDS011;14925;51.026;13.752;2023-06-14T02:26:36;6.18;;;4.00;;
27489;SDS011;14925;51.026;13.752;2023-06-14T02:29:03;10.38;;;4.10;;
27489;SDS011;14925;51.026;13.752;2023-06-14T02:31:30;5.95;;;4.10;;
27489;SDS011;14925;51.026;13.752;2023-06-14T02:33:56;6.10;;;3.90;;
27489;SDS011;14925;51.026;13.752;2023-06-14T02:36:21;6.57;;;3.90;;
27489;SDS011;14925;51.026;13.752;2023-06-14T02:38:46;9.07;;;3.92;;
27489;SDS011;14925;51.026;13.752;2023-06-14T02:41:15;6.85;;;4.30;;
27489;SDS011;14925;51.026;13.752;2023-06-14T02:43:40;7.30;;;4.00;;
27489;SDS011;14925;51.026;13.752;2023-06-14T02:46:05;7.45;;;4.10;;
27489;SDS011;14925;51.026;13.752;2023-06-14T02:48:34;9.77;;;4.40;;
27489;SDS011;14925;51.026;13.752;2023-06-14T02:50:59;8.18;;;4.55;;
27489;SDS011;14925;51.026;13.752;2023-06-14T02:53:25;8.38;;;4.22;;
27489;SDS011;14925;51.026;13.752;2023-06-14T02:55:50;7.90;;;4.43;;
27489;SDS011;14925;51.026;13.752;2023-06-14T02:58:17;7.63;;;4.28;;
27489;SDS011;14925;51.026;13.752;2023-06-14T03:00:43;6.68;;;4.38;;
27489;SDS011;14925;51.026;13.752;2023-06-14T03:03:12;6.45;;;4.50;;
27489;SDS011;14925;51.026;13.752;2023-06-14T03:05:44;6.68;;;4.07;;
27489;SDS011;14925;51.026;13.752;2023-06-14T03:08:12;6.90;;;4.57;;
27489;SDS011;14925;51.026;13.752;2023-06-14T03:10:52;7.28;;;4.30;;
27489;SDS011;14925;51.026;13.752;2023-06-14T03:13:18;6.63;;;4.32;;
27489;SDS011;14925;51.026;13.752;2023-06-14T03:15:47;6.53;;;4.60;;
27489;SDS011;14925;51.026;13.752;2023-06-14T03:18:14;6.50;;;4.70;;
27489;SDS011;14925;51.026;13.752;2023-06-14T03:20:40;7.53;;;4.10;;
27489;SDS011;14925;51.026;13.752;2023-06-14T03:23:07;6.38;;;4.38;;
27489;SDS011;14925;51.026;13.752;2023-06-14T03:25:33;10.45;;;4.82;;
27489;SDS011;14925;51.026;13.752;2023-06-14T03:28:01;6.70;;;4.25;;
27489;SDS011;14925;51.026;13.752;2023-06-14T03:30:27;6.72;;;4.25;;
27489;SDS011;14925;51.026;13.752;2023-06-14T03:32:52;5.80;;;4.05;;
27489;SDS011;14925;51.026;13.752;2023-06-14T03:35:20;8.05;;;4.35;;
27489;SDS011;14925;51.026;13.752;2023-06-14T03:37:46;6.40;;;4.07;;
27489;SDS011;14925;51.026;13.752;2023-06-14T03:40:12;6.32;;;4.10;;
27489;SDS011;14925;51.026;13.752;2023-06-14T03:42:38;8.68;;;4.13;;
27489;SDS011;14925;51.026;13.752;2023-06-14T03:45:05;6.90;;;3.72;;
27489;SDS011;14925;51.026;13.752;2023-06-14T03:47:31;6.32;;;3.97;;
27489;SDS011;14925;51.026;13.752;2023-06-14T03:49:56;6.00;;;3.95;;
27489;SDS011;14925;51.026;13.752;2023-06-14T03:52:22;6.55;;;4.22;;
27489;SDS011;14925;51.026;13.752;2023-06-14T03:54:48;8.90;;;4.65;;
27489;SDS011;14925;51.026;13.752;2023-06-14T03:57:14;8.82;;;5.18;;
27489;SDS011;14925;51.026;13.752;2023-06-14T03:59:39;6.00;;;4.68;;
27489;SDS011;14925;51.026;13.752;2023-06-14T04:02:06;8.20;;;4.10;;
27489;SDS011;14925;51.026;13.752;2023-06-14T04:04:32;7.85;;;4.38;;
27489;SDS011;14925;51.026;13.752;2023-06-14T04:06:57;6.10;;;4.60;;
27489;SDS011;14925;51.026;13.752;2023-06-14T04:09:24;7.40;;;4.75;;
27489;SDS011;14925;51.026;13.752;2023-06-14T04:11:53;6.38;;;4.13;;
27489;SDS011;14925;51.026;13.752;2023-06-14T04:14:19;9.93;;;4.60;;
27489;SDS011;14925;51.026;13.752;2023-06-14T04:16:45;9.77;;;4.40;;
27489;SDS011;14925;51.026;13.752;2023-06-14T04:19:11;5.40;;;4.15;;
27489;SDS011;14925;51.026;13.752;2023-06-14T04:21:36;7.90;;;4.90;;
27489;SDS011;14925;51.026;13.752;2023-06-14T04:24:02;11.15;;;4.93;;
27489;SDS011;14925;51.026;13.752;2023-06-14T04:26:28;9.80;;;4.60;;
27489;SDS011;14925;51.026;13.752;2023-06-14T04:28:54;8.43;;;4.70;;
27489;SDS011;14925;51.026;13.752;2023-06-14T04:31:27;10.35;;;4.97;;
27489;SDS011;14925;51.026;13.752;2023-06-14T04:33:58;5.90;;;4.65;;
27489;SDS011;14925;51.026;13.752;2023-06-14T04:36:24;8.77;;;4.68;;
27489;SDS011;14925;51.026;13.752;2023-06-14T04:38:51;9.98;;;4.07;;
27489;SDS011;14925;51.026;13.752;2023-06-14T04:41:20;6.53;;;4.30;;
27489;SDS011;14925;51.026;13.752;2023-06-14T04:43:47;7.20;;;4.50;;
27489;SDS011;14925;51.026;13.752;2023-06-14T04:46:14;7.70;;;4.70;;
27489;SDS011;14925;51.026;13.752;2023-06-14T04:48:40;8.35;;;4.40;;
27489;SDS011;14925;51.026;13.752;2023-06-14T04:51:07;8.20;;;4.15;;
27489;SDS011;14925;51.026;13.752;2023-06-14T04:53:33;7.28;;;4.00;;
27489;SDS011;14925;51.026;13.752;2023-06-14T04:55:59;5.75;;;4.07;;
27489;SDS011;14925;51.026;13.752;2023-06-14T04:58:26;6.40;;;4.07;;
27489;SDS011;14925;51.026;13.752;2023-06-14T05:00:52;8.23;;;4.32;;
27489;SDS011;14925;51.026;13.752;2023-06-14T05:03:18;5.35;;;4.15;;
27489;SDS011;14925;51.026;13.752;2023-06-14T05:05:46;8.27;;;4.20;;
27489;SDS011;14925;51.026;13.752;2023-06-14T05:08:11;5.80;;;4.60;;
27489;SDS011;14925;51.026;13.752;2023-06-14T05:10:36;5.68;;;4.82;;
27489;SDS011;14925;51.026;13.752;2023-06-14T05:13:02;6.65;;;4.05;;
27489;SDS011;14925;51.026;13.752;2023-06-14T05:15:28;7.30;;;4.32;;
27489;SDS011;14925;51.026;13.752;2023-06-14T05:17:54;5.75;;;4.10;;
27489;SDS011;14925;51.026;13.752;2023-06-14T05:20:24;9.35;;;4.60;;
27489;SDS011;14925;51.026;13.752;2023-06-14T05:22:50;10.68;;;4.35;;
27489;SDS011;14925;51.026;13.752;2023-06-14T05:25:17;5.88;;;4.45;;
27489;SDS011;14925;51.026;13.752;2023-06-14T05:27:42;6.22;;;4.13;;
27489;SDS011;14925;51.026;13.752;2023-06-14T05:30:08;6.30;;;4.68;;
27489;SDS011;14925;51.026;13.752;2023-06-14T05:32:34;9.30;;;4.70;;
27489;SDS011;14925;51.026;13.752;2023-06-14T05:34:59;6.68;;;4.50;;
27489;SDS011;14925;51.026;13.752;2023-06-14T05:37:25;6.53;;;4.95;;
27489;SDS011;14925;51.026;13.752;2023-06-14T05:39:50;7.50;;;4.70;;
27489;SDS011;14925;51.026;13.752;2023-06-14T05:42:16;8.95;;;4.80;;
27489;SDS011;14925;51.026;13.752;2023-06-14T05:44:41;9.68;;;4.43;;
27489;SDS011;14925;51.026;13.752;2023-06-14T05:47:09;7.07;;;5.00;;
27489;SDS011;14925;51.026;13.752;2023-06-14T05:49:41;8.05;;;4.55;;
27489;SDS011;14925;51.026;13.752;2023-06-14T05:52:07;8.27;;;5.07;;
27489;SDS011;14925;51.026;13.752;2023-06-14T05:54:32;7.30;;;4.93;;
27489;SDS011;14925;51.026;13.752;2023-06-14T05:56:58;8.18;;;4.82;;
27489;SDS011;14925;51.026;13.752;2023-06-14T05:59:29;8.48;;;4.65;;
27489;SDS011;14925;51.026;13.752;2023-06-14T06:01:55;8.25;;;5.20;;
27489;SDS011;14925;51.026;13.752;2023-06-14T06:04:20;7.40;;;5.15;;
27489;SDS011;14925;51.026;13.752;2023-06-14T06:06:45;9.98;;;5.60;;
27489;SDS011;14925;51.026;13.752;2023-06-14T06:09:11;7.40;;;5.40;;
27489;SDS011;14925;51.026;13.752;2023-06-14T06:11:37;7.10;;;4.68;;
27489;SDS011;14925;51.026;13.752;2023-06-14T06:14:02;7.78;;;5.18;;
27489;SDS011;14925;51.026;13.752;2023-06-14T06:16:28;7.18;;;5.07;;
27489;SDS011;14925;51.026;13.752;2023-06-14T06:18:53;6.63;;;5.30;;
27489;SDS011;14925;51.026;13.752;2023-06-14T06:21:19;7.30;;;5.05;;
27489;SDS011;14925;51.026;13.752;2023-06-14T06:23:44;6.10;;;5.00;;
27489;SDS011;14925;51.026;13.752;2023-06-14T06:26:10;8.27;;;5.03;;
27489;SDS011;14925;51.026;13.752;2023-06-14T06:28:35;8.00;;;5.28;;
27489;SDS011;14925;51.026;13.752;2023-06-14T06:31:00;7.97;;;4.93;;
27489;SDS011;14925;51.026;13.752;2023-06-14T06:33:26;11.20;;;5.22;;
27489;SDS011;14925;51.026;13.752;2023-06-14T06:35:51;9.60;;;4.80;;
27489;SDS011;14925;51.026;13.752;2023-06-14T06:38:17;6.28;;;4.43;;
27489;SDS011;14925;51.026;13.752;2023-06-14T06:40:43;7.38;;;5.30;;
27489;SDS011;14925;51.026;13.752;2023-06-14T06:43:09;7.07;;;4.78;;
27489;SDS011;14925;51.026;13.752;2023-06-14T06:45:34;6.13;;;4.43;;
27489;SDS011;14925;51.026;13.752;2023-06-14T06:48:00;6.82;;;4.15;;
27489;SDS011;14925;51.026;13.752;2023-06-14T06:50:25;9.48;;;4.85;;
27489;SDS011;14925;51.026;13.752;2023-06-14T06:52:50;7.07;;;4.72;;
27489;SDS011;14925;51.026;13.752;2023-06-14T06:55:16;6.90;;;4.10;;
27489;SDS011;14925;51.026;13.752;2023-06-14T06:57:43;5.35;;;4.13;;
27489;SDS011;14925;51.026;13.752;2023-06-14T07:00:10;8.20;;;4.43;;
27489;SDS011;14925;51.026;13.752;2023-06-14T07:02:37;6.57;;;4.15;;
27489;SDS011;14925;51.026;13.752;2023-06-14T07:05:03;5.13;;;4.30;;
27489;SDS011;14925;51.026;13.752;2023-06-14T07:07:29;7.50;;;4.60;;
27489;SDS011;14925;51.026;13.752;2023-06-14T07:09:54;7.20;;;4.93;;
27489;SDS011;14925;51.026;13.752;2023-06-14T07:12:22;5.65;;;4.10;;
27489;SDS011;14925;51.026;13.752;2023-06-14T07:14:48;12.40;;;4.90;;
27489;SDS011;14925;51.026;13.752;2023-06-14T07:17:13;7.18;;;4.63;;
27489;SDS011;14925;51.026;13.752;2023-06-14T07:19:39;7.00;;;4.85;;
27489;SDS011;14925;51.026;13.752;2023-06-14T07:22:04;8.68;;;4.90;;
27489;SDS011;14925;51.026;13.752;2023-06-14T07:24:29;6.97;;;4.15;;
27489;SDS011;14925;51.026;13.752;2023-06-14T07:26:55;6.43;;;4.53;;
27489;SDS011;14925;51.026;13.752;2023-06-14T07:29:21;6.75;;;5.18;;
27489;SDS011;14925;51.026;13.752;2023-06-14T07:31:46;5.32;;;4.80;;
27489;SDS011;14925;51.026;13.752;2023-06-14T07:34:12;6.35;;;4.57;;
27489;SDS011;14925;51.026;13.752;2023-06-14T07:36:37;10.55;;;4.75;;
27489;SDS011;14925;51.026;13.752;2023-06-14T07:39:03;6.70;;;4.80;;
27489;SDS011;14925;51.026;13.752;2023-06-14T07:41:29;8.68;;;4.88;;
27489;SDS011;14925;51.026;13.752;2023-06-14T07:43:54;5.80;;;4.53;;
27489;SDS011;14925;51.026;13.752;2023-06-14T07:46:20;7.57;;;4.32;;
27489;SDS011;14925;51.026;13.752;2023-06-14T07:48:45;5.00;;;4.13;;
27489;SDS011;14925;51.026;13.752;2023-06-14T07:51:11;6.05;;;3.78;;
27489;SDS011;14925;51.026;13.752;2023-06-14T07:53:36;4.75;;;3.85;;
27489;SDS011;14925;51.026;13.752;2023-06-14T07:56:01;5.93;;;3.58;;
27489;SDS011;14925;51.026;13.752;2023-06-14T07:58:27;3.90;;;3.42;;
27489;SDS011;14925;51.026;13.752;2023-06-14T08:00:56;3.92;;;3.40;;
27489;SDS011;14925;51.026;13.752;2023-06-14T08:03:21;5.00;;;2.97;;
27489;SDS011;14925;51.026;13.752;2023-06-14T08:05:47;3.08;;;2.50;;
27489;SDS011;14925;51.026;13.752;2023-06-14T08:08:13;3.70;;;2.78;;
27489;SDS011;14925;51.026;13.752;2023-06-14T08:10:38;5.20;;;2.80;;
27489;SDS011;14925;51.026;13.752;2023-06-14T08:13:03;3.65;;;2.72;;
27489;SDS011;14925;51.026;13.752;2023-06-14T08:15:29;3.72;;;2.75;;
27489;SDS011;14925;51.026;13.752;2023-06-14T08:17:57;6.03;;;2.80;;
27489;SDS011;14925;51.026;13.752;2023-06-14T08:20:24;3.60;;;2.85;;
27489;SDS011;14925;51.026;13.752;2023-06-14T08:22:50;4.28;;;3.38;;
27489;SDS011;14925;51.026;13.752;2023-06-14T08:25:20;4.95;;;3.38;;
27489;SDS011;14925;51.026;13.752;2023-06-14T08:27:45;4.28;;;2.80;;
27489;SDS011;14925;51.026;13.752;2023-06-14T08:30:11;5.70;;;2.50;;
27489;SDS011;14925;51.026;13.752;2023-06-14T08:32:37;6.00;;;2.22;;
27489;SDS011;14925;51.026;13.752;2023-06-14T08:35:03;4.10;;;2.00;;
27489;SDS011;14925;51.026;13.752;2023-06-14T08:37:29;6.45;;;2.30;;
27489;SDS011;14925;51.026;13.752;2023-06-14T08:39:55;2.63;;;1.83;;
27489;SDS011;14925;51.026;13.752;2023-06-14T08:42:21;3.88;;;2.33;;
27489;SDS011;14925;51.026;13.752;2023-06-14T08:44:48;7.75;;;2.25;;
27489;SDS011;14925;51.026;13.752;2023-06-14T08:47:14;3.05;;;2.50;;
27489;SDS011;14925;51.026;13.752;2023-06-14T08:49:41;2.58;;;2.38;;
27489;SDS011;14925;51.026;13.752;2023-06-14T08:52:10;2.42;;;2.22;;
27489;SDS011;14925;51.026;13.752;2023-06-14T08:54:37;3.53;;;2.63;;
27489;SDS011;14925;51.026;13.752;2023-06-14T08:57:08;3.80;;;2.70;;
27489;SDS011;14925;51.026;13.752;2023-06-14T08:59:37;3.97;;;2.90;;
27489;SDS011;14925;51.026;13.752;2023-06-14T09:02:09;6.78;;;3.10;;
27489;SDS011;14925;51.026;13.752;2023-06-14T09:04:39;8.23;;;2.95;;
27489;SDS011;14925;51.026;13.752;2023-06-14T09:07:05;4.97;;;3.10;;
27489;SDS011;14925;51.026;13.752;2023-06-14T09:09:31;5.50;;;3.05;;
27489;SDS011;14925;51.026;13.752;2023-06-14T09:11:57;7.68;;;3.20;;
27489;SDS011;14925;51.026;13.752;2023-06-14T09:14:23;5.18;;;3.28;;
27489;SDS011;14925;51.026;13.752;2023-06-14T09:16:53;4.90;;;3.22;;
27489;SDS011;14925;51.026;13.752;2023-06-14T09:19:25;5.35;;;3.08;;
27489;SDS011;14925;51.026;13.752;2023-06-14T09:21:51;4.22;;;3.20;;
27489;SDS011;14925;51.026;13.752;2023-06-14T09:24:18;5.55;;;3.20;;
27489;SDS011;14925;51.026;13.752;2023-06-14T09:26:46;5.68;;;3.33;;
27489;SDS011;14925;51.026;13.752;2023-06-14T09:29:12;5.22;;;3.53;;
27489;SDS011;14925;51.026;13.752;2023-06-14T09:31:37;3.10;;;2.80;;
27489;SDS011;14925;51.026;13.752;2023-06-14T09:34:03;5.55;;;3.42;;
27489;SDS011;14925;51.026;13.752;2023-06-14T09:36:30;6.07;;;3.30;;
27489;SDS011;14925;51.026;13.752;2023-06-14T09:39:00;5.18;;;3.20;;
27489;SDS011;14925;51.026;13.752;2023-06-14T09:41:33;4.95;;;3.15;;
27489;SDS011;14925;51.026;13.752;2023-06-14T09:43:59;7.82;;;3.70;;
27489;SDS011;14925;51.026;13.752;2023-06-14T09:46:26;4.20;;;3.30;;
27489;SDS011;14925;51.026;13.752;2023-06-14T09:48:55;5.38;;;3.70;;
27489;SDS011;14925;51.026;13.752;2023-06-14T09:51:21;6.70;;;3.83;;
27489;SDS011;14925;51.026;13.752;2023-06-14T09:53:48;5.88;;;3.58;;
27489;SDS011;14925;51.026;13.752;2023-06-14T09:56:15;5.55;;;3.60;;
27489;SDS011;14925;51.026;13.752;2023-06-14T09:58:45;4.40;;;3.65;;
27489;SDS011;14925;51.026;13.752;2023-06-14T10:01:10;7.78;;;3.67;;
27489;SDS011;14925;51.026;13.752;2023-06-14T10:03:38;5.38;;;3.40;;
27489;SDS011;14925;51.026;13.752;2023-06-14T10:06:04;4.35;;;3.15;;
27489;SDS011;14925;51.026;13.752;2023-06-14T10:08:31;4.68;;;3.20;;
27489;SDS011;14925;51.026;13.752;2023-06-14T10:10:58;5.38;;;3.50;;
27489;SDS011;14925;51.026;13.752;2023-06-14T10:13:23;4.65;;;3.15;;
27489;SDS011;14925;51.026;13.752;2023-06-14T10:15:58;4.28;;;2.58;;
27489;SDS011;14925;51.026;13.752;2023-06-14T10:18:42;4.65;;;2.92;;
27489;SDS011;14925;51.026;13.752;2023-06-14T10:24:04;4.03;;;3.10;;
27489;SDS011;14925;51.026;13.752;2023-06-14T10:26:32;6.68;;;3.00;;
27489;SDS011;14925;51.026;13.752;2023-06-14T10:28:59;3.55;;;2.53;;
27489;SDS011;14925;51.026;13.752;2023-06-14T10:31:44;3.95;;;2.08;;
27489;SDS011;14925;51.026;13.752;2023-06-14T10:34:11;4.30;;;2.60;;
27489;SDS011;14925;51.026;13.752;2023-06-14T10:36:38;4.60;;;2.45;;
27489;SDS011;14925;51.026;13.752;2023-06-14T10:39:07;5.13;;;2.85;;
27489;SDS011;14925;51.026;13.752;2023-06-14T10:41:35;4.10;;;2.70;;
27489;SDS011;14925;51.026;13.752;2023-06-14T10:44:10;3.30;;;2.40;;
27489;SDS011;14925;51.026;13.752;2023-06-14T10:46:59;3.10;;;2.65;;
27489;SDS011;14925;51.026;13.752;2023-06-14T10:49:38;7.72;;;3.05;;
27489;SDS011;14925;51.026;13.752;2023-06-14T10:52:09;5.47;;;2.67;;
27489;SDS011;14925;51.026;13.752;2023-06-14T11:00:06;6.00;;;2.97;;
27489;SDS011;14925;51.026;13.752;2023-06-14T11:02:52;5.10;;;3.35;;
27489;SDS011;14925;51.026;13.752;2023-06-14T11:05:26;4.75;;;3.45;;
27489;SDS011;14925;51.026;13.752;2023-06-14T11:08:10;7.43;;;3.63;;
27489;SDS011;14925;51.026;13.752;2023-06-14T11:10:43;5.22;;;2.90;;
27489;SDS011;14925;51.026;13.752;2023-06-14T11:13:26;4.68;;;3.35;;
27489;SDS011;14925;51.026;13.752;2023-06-14T11:15:56;6.97;;;3.28;;
27489;SDS011;14925;51.026;13.752;2023-06-14T11:18:25;3.88;;;3.40;;
27489;SDS011;14925;51.026;13.752;2023-06-14T11:20:58;8.52;;;3.28;;
27489;SDS011;14925;51.026;13.752;2023-06-14T11:23:23;4.93;;;3.17;;
27489;SDS011;14925;51.026;13.752;2023-06-14T11:25:50;6.60;;;3.25;;
27489;SDS011;14925;51.026;13.752;2023-06-14T11:28:17;4.45;;;3.47;;
27489;SDS011;14925;51.026;13.752;2023-06-14T11:30:45;6.60;;;3.80;;
27489;SDS011;14925;51.026;13.752;2023-06-14T11:33:20;6.43;;;3.58;;
27489;SDS011;14925;51.026;13.752;2023-06-14T11:35:46;4.60;;;3.83;;
27489;SDS011;14925;51.026;13.752;2023-06-14T11:38:12;4.45;;;3.70;;
27489;SDS011;14925;51.026;13.752;2023-06-14T11:40:40;5.65;;;4.00;;
27489;SDS011;14925;51.026;13.752;2023-06-14T11:43:05;7.40;;;3.67;;
27489;SDS011;14925;51.026;13.752;2023-06-14T11:45:31;6.60;;;3.60;;
27489;SDS011;14925;51.026;13.752;2023-06-14T11:48:19;7.72;;;3.90;;
27489;SDS011;14925;51.026;13.752;2023-06-14T11:50:49;4.10;;;3.70;;
27489;SDS011;14925;51.026;13.752;2023-06-14T11:53:16;4.40;;;3.30;;
27489;SDS011;14925;51.026;13.752;2023-06-14T11:55:49;5.60;;;3.40;;
27489;SDS011;14925;51.026;13.752;2023-06-14T11:58:19;5.32;;;3.70;;
27489;SDS011;14925;51.026;13.752;2023-06-14T12:00:54;4.45;;;3.78;;
27489;SDS011;14925;51.026;13.752;2023-06-14T12:03:23;6.25;;;3.10;;
27489;SDS011;14925;51.026;13.752;2023-06-14T12:05:50;6.55;;;3.00;;
27489;SDS011;14925;51.026;13.752;2023-06-14T12:08:31;5.47;;;3.42;;
27489;SDS011;14925;51.026;13.752;2023-06-14T12:11:03;3.95;;;3.30;;
27489;SDS011;14925;51.026;13.752;2023-06-14T12:13:29;5.05;;;3.30;;
27489;SDS011;14925;51.026;13.752;2023-06-14T12:15:58;8.52;;;3.92;;
27489;SDS011;14925;51.026;13.752;2023-06-14T12:18:33;10.00;;;3.55;;
27489;SDS011;14925;51.026;13.752;2023-06-14T12:20:59;7.70;;;3.72;;
27489;SDS011;14925;51.026;13.752;2023-06-14T12:23:38;6.20;;;4.22;;
27489;SDS011;14925;51.026;13.752;2023-06-14T12:26:14;7.88;;;3.83;;
27489;SDS011;14925;51.026;13.752;2023-06-14T12:28:40;4.18;;;3.38;;
27489;SDS011;14925;51.026;13.752;2023-06-14T12:31:11;4.60;;;3.10;;
27489;SDS011;14925;51.026;13.752;2023-06-14T12:33:43;6.00;;;3.25;;
27489;SDS011;14925;51.026;13.752;2023-06-14T12:36:10;6.85;;;3.70;;
27489;SDS011;14925;51.026;13.752;2023-06-14T12:41:36;7.00;;;4.35;;
27489;SDS011;14925;51.026;13.752;2023-06-14T12:44:06;5.38;;;4.05;;
27489;SDS011;14925;51.026;13.752;2023-06-14T12:46:32;7.13;;;3.95;;
27489;SDS011;14925;51.026;13.752;2023-06-14T12:49:00;6.05;;;3.88;;
27489;SDS011;14925;51.026;13.752;2023-06-14T12:51:34;6.93;;;3.63;;
27489;SDS011;14925;51.026;13.752;2023-06-14T12:54:02;6.05;;;3.78;;
27489;SDS011;14925;51.026;13.752;2023-06-14T12:56:42;8.88;;;3.95;;
27489;SDS011;14925;51.026;13.752;2023-06-14T12:59:10;4.90;;;3.90;;
27489;SDS011;14925;51.026;13.752;2023-06-14T13:01:37;6.78;;;3.80;;
27489;SDS011;14925;51.026;13.752;2023-06-14T13:04:03;5.90;;;3.35;;
27489;SDS011;14925;51.026;13.752;2023-06-14T13:06:28;4.95;;;3.40;;
27489;SDS011;14925;51.026;13.752;2023-06-14T13:08:56;4.43;;;3.47;;
27489;SDS011;14925;51.026;13.752;2023-06-14T13:11:22;6.13;;;3.72;;
27489;SDS011;14925;51.026;13.752;2023-06-14T13:13:48;7.32;;;4.03;;
27489;SDS011;14925;51.026;13.752;2023-06-14T13:16:13;5.70;;;3.70;;
27489;SDS011;14925;51.026;13.752;2023-06-14T13:18:39;6.38;;;3.70;;
27489;SDS011;14925;51.026;13.752;2023-06-14T13:21:05;6.18;;;3.20;;
27489;SDS011;14925;51.026;13.752;2023-06-14T13:23:30;8.10;;;3.45;;
27489;SDS011;14925;51.026;13.752;2023-06-14T13:25:55;4.03;;;3.38;;
27489;SDS011;14925;51.026;13.752;2023-06-14T13:28:21;5.45;;;3.10;;
27489;SDS011;14925;51.026;13.752;2023-06-14T13:30:47;4.18;;;3.30;;
27489;SDS011;14925;51.026;13.752;2023-06-14T13:33:13;3.85;;;3.40;;
27489;SDS011;14925;51.026;13.752;2023-06-14T13:35:38;4.53;;;3.17;;
27489;SDS011;14925;51.026;13.752;2023-06-14T13:38:04;7.65;;;3.22;;
27489;SDS011;14925;51.026;13.752;2023-06-14T13:40:29;5.13;;;3.92;;
27489;SDS011;14925;51.026;13.752;2023-06-14T13:42:54;7.07;;;3.63;;
27489;SDS011;14925;51.026;13.752;2023-06-14T13:45:23;6.65;;;3.58;;
27489;SDS011;14925;51.026;13.752;2023-06-14T13:47:48;8.85;;;3.80;;
27489;SDS011;14925;51.026;13.752;2023-06-14T13:50:14;6.82;;;3.70;;
27489;SDS011;14925;51.026;13.752;2023-06-14T13:52:41;6.45;;;3.65;;
27489;SDS011;14925;51.026;13.752;2023-06-14T13:55:08;10.23;;;3.95;;
27489;SDS011;14925;51.026;13.752;2023-06-14T13:57:34;5.72;;;3.38;;
27489;SDS011;14925;51.026;13.752;2023-06-14T14:00:00;5.50;;;3.20;;
27489;SDS011;14925;51.026;13.752;2023-06-14T14:02:28;3.60;;;3.03;;
27489;SDS011;14925;51.026;13.752;2023-06-14T14:04:54;4.82;;;3.10;;
27489;SDS011;14925;51.026;13.752;2023-06-14T14:07:23;3.67;;;3.00;;
27489;SDS011;14925;51.026;13.752;2023-06-14T14:09:49;8.20;;;2.97;;
27489;SDS011;14925;51.026;13.752;2023-06-14T14:12:14;7.53;;;3.05;;
27489;SDS011;14925;51.026;13.752;2023-06-14T14:14:40;5.63;;;2.67;;
27489;SDS011;14925;51.026;13.752;2023-06-14T14:17:06;4.07;;;2.65;;
27489;SDS011;14925;51.026;13.752;2023-06-14T14:19:31;6.32;;;2.90;;
27489;SDS011;14925;51.026;13.752;2023-06-14T14:21:57;4.53;;;2.70;;
27489;SDS011;14925;51.026;13.752;2023-06-14T14:24:22;7.57;;;3.00;;
27489;SDS011;14925;51.026;13.752;2023-06-14T14:26:48;5.65;;;3.00;;
27489;SDS011;14925;51.026;13.752;2023-06-14T14:29:16;4.32;;;2.70;;
27489;SDS011;14925;51.026;13.752;2023-06-14T14:31:42;5.57;;;2.83;;
27489;SDS011;14925;51.026;13.752;2023-06-14T14:34:07;7.30;;;3.08;;
27489;SDS011;14925;51.026;13.752;2023-06-14T14:36:33;7.22;;;2.95;;
27489;SDS011;14925;51.026;13.752;2023-06-14T14:39:01;3.75;;;2.45;;
27489;SDS011;14925;51.026;13.752;2023-06-14T14:41:27;10.40;;;2.80;;
27489;SDS011;14925;51.026;13.752;2023-06-14T14:43:52;4.65;;;2.70;;
27489;SDS011;14925;51.026;13.752;2023-06-14T14:46:18;5.40;;;2.72;;
27489;SDS011;14925;51.026;13.752;2023-06-14T14:48:43;5.78;;;2.75;;
27489;SDS011;14925;51.026;13.752;2023-06-14T14:51:09;7.68;;;2.50;;
27489;SDS011;14925;51.026;13.752;2023-06-14T14:53:35;4.30;;;2.55;;